sensor_id;sensor_type;location;lat;lon;timestamp;temperature;humidity
55329;DHT22;41205;44.264;19.884;2023-05-07T00:02:25;358.90;2329.60
55329;DHT22;41205;44.264;19.884;2023-05-07T00:04:51;359.00;2329.60
55329;DHT22;41205;44.264;19.884;2023-05-07T00:07:17;359.00;2329.60
55329;DHT22;41205;44.264;19.884;2023-05-07T00:09:43;358.90;2329.60
55329;DHT22;41205;44.264;19.884;2023-05-07T00:12:09;358.80;2329.60
55329;DHT22;41205;44.264;19.884;2023-05-07T00:14:35;358.80;2329.60
55329;DHT22;41205;44.264;19.884;2023-05-07T00:17:01;358.70;2329.60
55329;DHT22;41205;44.264;19.884;2023-05-07T00:19:27;358.70;2329.60
55329;DHT22;41205;44.264;19.884;2023-05-07T00:21:53;358.60;2329.60
55329;DHT22;41205;44.264;19.884;2023-05-07T00:24:22;358.60;2329.60
55329;DHT22;41205;44.264;19.884;2023-05-07T00:26:48;358.50;2329.60
55329;DHT22;41205;44.264;19.884;2023-05-07T00:29:13;358.50;2329.60
55329;DHT22;41205;44.264;19.884;2023-05-07T00:31:39;358.40;2329.60
55329;DHT22;41205;44.264;19.884;2023-05-07T00:34:05;358.50;2329.60
55329;DHT22;41205;44.264;19.884;2023-05-07T00:36:31;333.70;2329.60
55329;DHT22;41205;44.264;19.884;2023-05-07T00:38:59;333.70;2329.60
55329;DHT22;41205;44.264;19.884;2023-05-07T00:41:25;333.70;2329.60
55329;DHT22;41205;44.264;19.884;2023-05-07T00:43:51;333.70;2329.60
55329;DHT22;41205;44.264;19.884;2023-05-07T00:46:20;333.60;2329.60
55329;DHT22;41205;44.264;19.884;2023-05-07T00:48:47;333.50;2329.60
55329;DHT22;41205;44.264;19.884;2023-05-07T00:51:13;333.40;2329.60
55329;DHT22;41205;44.264;19.884;2023-05-07T00:53:39;333.20;2329.60
55329;DHT22;41205;44.264;19.884;2023-05-07T00:56:06;333.30;2329.60
55329;DHT22;41205;44.264;19.884;2023-05-07T00:58:32;333.40;2329.60
55329;DHT22;41205;44.264;19.884;2023-05-07T01:00:59;333.40;2329.60
55329;DHT22;41205;44.264;19.884;2023-05-07T01:03:24;333.40;2329.60
55329;DHT22;41205;44.264;19.884;2023-05-07T01:05:52;333.40;2329.60
55329;DHT22;41205;44.264;19.884;2023-05-07T01:08:20;333.50;2329.60
55329;DHT22;41205;44.264;19.884;2023-05-07T01:10:47;333.30;2329.60
55329;DHT22;41205;44.264;19.884;2023-05-07T01:13:14;333.20;2329.60
55329;DHT22;41205;44.264;19.884;2023-05-07T01:15:40;333.20;2329.60
55329;DHT22;41205;44.264;19.884;2023-05-07T01:18:07;333.20;2329.60
55329;DHT22;41205;44.264;19.884;2023-05-07T01:20:33;333.00;2329.60
55329;DHT22;41205;44.264;19.884;2023-05-07T01:23:00;333.00;2329.60
55329;DHT22;41205;44.264;19.884;2023-05-07T01:25:26;333.10;2329.60
55329;DHT22;41205;44.264;19.884;2023-05-07T01:27:52;333.00;2329.60
55329;DHT22;41205;44.264;19.884;2023-05-07T01:30:18;332.90;2329.60
55329;DHT22;41205;44.264;19.884;2023-05-07T01:32:59;332.90;2329.60
55329;DHT22;41205;44.264;19.884;2023-05-07T01:35:36;332.80;2329.60
55329;DHT22;41205;44.264;19.884;2023-05-07T01:38:03;308.10;2304.00
55329;DHT22;41205;44.264;19.884;2023-05-07T01:40:31;308.10;2304.00
55329;DHT22;41205;44.264;19.884;2023-05-07T01:42:57;308.10;2304.00
55329;DHT22;41205;44.264;19.884;2023-05-07T01:45:23;307.90;2304.00
55329;DHT22;41205;44.264;19.884;2023-05-07T01:47:49;307.70;2304.00
55329;DHT22;41205;44.264;19.884;2023-05-07T01:50:17;307.80;2304.00
55329;DHT22;41205;44.264;19.884;2023-05-07T01:52:43;307.80;2304.00
55329;DHT22;41205;44.264;19.884;2023-05-07T01:55:09;308.00;2304.00
55329;DHT22;41205;44.264;19.884;2023-05-07T01:57:35;308.00;2304.00
55329;DHT22;41205;44.264;19.884;2023-05-07T02:00:01;308.00;2304.00
55329;DHT22;41205;44.264;19.884;2023-05-07T02:02:28;308.00;2304.00
55329;DHT22;41205;44.264;19.884;2023-05-07T02:04:54;307.90;2304.00
55329;DHT22;41205;44.264;19.884;2023-05-07T02:07:19;308.00;2304.00
55329;DHT22;41205;44.264;19.884;2023-05-07T02:09:45;307.90;2304.00
55329;DHT22;41205;44.264;19.884;2023-05-07T02:12:11;307.80;2304.00
55329;DHT22;41205;44.264;19.884;2023-05-07T02:14:36;307.90;2304.00
55329;DHT22;41205;44.264;19.884;2023-05-07T02:17:02;307.80;2304.00
55329;DHT22;41205;44.264;19.884;2023-05-07T02:19:27;307.60;2304.00
55329;DHT22;41205;44.264;19.884;2023-05-07T02:21:53;307.60;2304.00
55329;DHT22;41205;44.264;19.884;2023-05-07T02:24:19;307.70;2304.00
55329;DHT22;41205;44.264;19.884;2023-05-07T02:26:45;307.70;2304.00
55329;DHT22;41205;44.264;19.884;2023-05-07T02:29:11;307.80;2304.00
55329;DHT22;41205;44.264;19.884;2023-05-07T02:31:36;307.80;2304.00
55329;DHT22;41205;44.264;19.884;2023-05-07T02:34:02;307.60;2304.00
55329;DHT22;41205;44.264;19.884;2023-05-07T02:36:28;307.60;2304.00
55329;DHT22;41205;44.264;19.884;2023-05-07T02:38:54;307.50;2304.00
55329;DHT22;41205;44.264;19.884;2023-05-07T02:41:20;307.40;2304.00
55329;DHT22;41205;44.264;19.884;2023-05-07T02:43:46;307.50;2304.00
55329;DHT22;41205;44.264;19.884;2023-05-07T02:46:11;307.50;2304.00
55329;DHT22;41205;44.264;19.884;2023-05-07T02:48:37;307.40;2304.00
55329;DHT22;41205;44.264;19.884;2023-05-07T02:51:03;307.40;2304.00
55329;DHT22;41205;44.264;19.884;2023-05-07T02:53:29;307.40;2304.00
55329;DHT22;41205;44.264;19.884;2023-05-07T02:55:56;307.40;2304.00
55329;DHT22;41205;44.264;19.884;2023-05-07T02:58:22;307.60;2304.00
55329;DHT22;41205;44.264;19.884;2023-05-07T03:00:48;307.60;2304.00
55329;DHT22;41205;44.264;19.884;2023-05-07T03:03:15;307.70;2304.00
55329;DHT22;41205;44.264;19.884;2023-05-07T03:05:41;307.80;2304.00
55329;DHT22;41205;44.264;19.884;2023-05-07T03:08:07;307.70;2304.00
55329;DHT22;41205;44.264;19.884;2023-05-07T03:10:33;307.80;2304.00
55329;DHT22;41205;44.264;19.884;2023-05-07T03:12:59;307.80;2304.00
55329;DHT22;41205;44.264;19.884;2023-05-07T03:15:24;307.80;2304.00
55329;DHT22;41205;44.264;19.884;2023-05-07T03:17:50;307.90;2304.00
55329;DHT22;41205;44.264;19.884;2023-05-07T03:20:16;307.80;2304.00
55329;DHT22;41205;44.264;19.884;2023-05-07T03:22:42;307.70;2304.00
55329;DHT22;41205;44.264;19.884;2023-05-07T03:25:10;307.60;2304.00
55329;DHT22;41205;44.264;19.884;2023-05-07T03:27:36;307.50;2304.00
55329;DHT22;41205;44.264;19.884;2023-05-07T03:30:02;307.50;2304.00
55329;DHT22;41205;44.264;19.884;2023-05-07T03:32:28;307.50;2304.00
55329;DHT22;41205;44.264;19.884;2023-05-07T03:34:53;307.50;2304.00
55329;DHT22;41205;44.264;19.884;2023-05-07T03:37:19;307.60;2304.00
55329;DHT22;41205;44.264;19.884;2023-05-07T03:39:45;307.60;2304.00
55329;DHT22;41205;44.264;19.884;2023-05-07T03:42:10;307.50;2304.00
55329;DHT22;41205;44.264;19.884;2023-05-07T03:44:36;307.60;2304.00
55329;DHT22;41205;44.264;19.884;2023-05-07T03:47:02;307.80;2304.00
55329;DHT22;41205;44.264;19.884;2023-05-07T03:49:28;307.80;2304.00
55329;DHT22;41205;44.264;19.884;2023-05-07T03:51:54;307.90;2304.00
55329;DHT22;41205;44.264;19.884;2023-05-07T03:54:20;307.90;2304.00
55329;DHT22;41205;44.264;19.884;2023-05-07T03:56:46;308.10;2304.00
55329;DHT22;41205;44.264;19.884;2023-05-07T03:59:13;308.10;2304.00
55329;DHT22;41205;44.264;19.884;2023-05-07T04:01:38;308.00;2304.00
55329;DHT22;41205;44.264;19.884;2023-05-07T04:04:04;308.00;2304.00
55329;DHT22;41205;44.264;19.884;2023-05-07T04:06:30;307.80;2304.00
55329;DHT22;41205;44.264;19.884;2023-05-07T04:08:57;308.10;2304.00
55329;DHT22;41205;44.264;19.884;2023-05-07T04:11:23;332.90;2329.60
55329;DHT22;41205;44.264;19.884;2023-05-07T04:13:48;333.00;2329.60
55329;DHT22;41205;44.264;19.884;2023-05-07T04:16:14;333.10;2329.60
55329;DHT22;41205;44.264;19.884;2023-05-07T04:18:40;333.30;2329.60
55329;DHT22;41205;44.264;19.884;2023-05-07T04:21:13;333.30;2329.60
55329;DHT22;41205;44.264;19.884;2023-05-07T04:23:39;333.40;2329.60
55329;DHT22;41205;44.264;19.884;2023-05-07T04:26:04;333.30;2329.60
55329;DHT22;41205;44.264;19.884;2023-05-07T04:28:30;333.20;2329.60
55329;DHT22;41205;44.264;19.884;2023-05-07T04:30:56;333.10;2329.60
55329;DHT22;41205;44.264;19.884;2023-05-07T04:33:21;333.20;2329.60
55329;DHT22;41205;44.264;19.884;2023-05-07T04:35:47;333.40;2329.60
55329;DHT22;41205;44.264;19.884;2023-05-07T04:38:12;333.50;2329.60
55329;DHT22;41205;44.264;19.884;2023-05-07T04:40:38;333.70;2329.60
55329;DHT22;41205;44.264;19.884;2023-05-07T04:43:04;358.50;2329.60
55329;DHT22;41205;44.264;19.884;2023-05-07T04:45:30;358.70;2329.60
55329;DHT22;41205;44.264;19.884;2023-05-07T04:47:55;358.90;2329.60
55329;DHT22;41205;44.264;19.884;2023-05-07T04:50:21;359.10;2329.60
55329;DHT22;41205;44.264;19.884;2023-05-07T04:52:49;359.30;2329.60
55329;DHT22;41205;44.264;19.884;2023-05-07T04:55:15;436.00;2355.20
55329;DHT22;41205;44.264;19.884;2023-05-07T04:57:41;563.60;1996.80
55329;DHT22;41205;44.264;19.884;2023-05-07T05:00:07;640.30;1689.60
55329;DHT22;41205;44.264;19.884;2023-05-07T05:02:36;692.10;1510.40
55329;DHT22;41205;44.264;19.884;2023-05-07T05:05:02;742.50;1459.20
55329;DHT22;41205;44.264;19.884;2023-05-07T05:07:28;768.60;1356.80
55329;DHT22;41205;44.264;19.884;2023-05-07T05:09:54;794.30;1305.60
55329;DHT22;41205;44.264;19.884;2023-05-07T05:12:20;844.80;1254.40
55329;DHT22;41205;44.264;19.884;2023-05-07T05:14:46;845.70;1203.20
55329;DHT22;41205;44.264;19.884;2023-05-07T05:17:12;871.00;1152.00
55329;DHT22;41205;44.264;19.884;2023-05-07T05:19:38;871.30;1126.40
55329;DHT22;41205;44.264;19.884;2023-05-07T05:22:03;896.00;1126.40
55329;DHT22;41205;44.264;19.884;2023-05-07T05:24:30;896.60;1100.80
55329;DHT22;41205;44.264;19.884;2023-05-07T05:26:56;896.40;1100.80
55329;DHT22;41205;44.264;19.884;2023-05-07T05:29:22;896.70;1075.20
55329;DHT22;41205;44.264;19.884;2023-05-07T05:31:48;896.20;1100.80
55329;DHT22;41205;44.264;19.884;2023-05-07T05:34:13;896.80;1075.20
55329;DHT22;41205;44.264;19.884;2023-05-07T05:36:39;922.50;1075.20
55329;DHT22;41205;44.264;19.884;2023-05-07T05:39:05;922.50;1049.60
55329;DHT22;41205;44.264;19.884;2023-05-07T05:41:31;948.00;1024.00
55329;DHT22;41205;44.264;19.884;2023-05-07T05:43:57;972.80;1049.60
55329;DHT22;41205;44.264;19.884;2023-05-07T05:46:22;973.20;998.40
55329;DHT22;41205;44.264;19.884;2023-05-07T05:48:48;998.80;998.40
55329;DHT22;41205;44.264;19.884;2023-05-07T05:51:14;1024.20;947.20
55329;DHT22;41205;44.264;19.884;2023-05-07T05:53:40;1024.30;947.20
55329;DHT22;41205;44.264;19.884;2023-05-07T05:56:06;1050.10;972.80
55329;DHT22;41205;44.264;19.884;2023-05-07T05:58:31;1049.90;972.80
55329;DHT22;41205;44.264;19.884;2023-05-07T06:00:57;1049.60;972.80
55329;DHT22;41205;44.264;19.884;2023-05-07T06:03:24;1050.00;972.80
55329;DHT22;41205;44.264;19.884;2023-05-07T06:05:49;1049.70;972.80
55329;DHT22;41205;44.264;19.884;2023-05-07T06:08:15;1050.50;921.60
55329;DHT22;41205;44.264;19.884;2023-05-07T06:10:41;1075.20;947.20
55329;DHT22;41205;44.264;19.884;2023-05-07T06:13:07;1075.40;947.20
55329;DHT22;41205;44.264;19.884;2023-05-07T06:15:33;1101.00;921.60
55329;DHT22;41205;44.264;19.884;2023-05-07T06:17:58;1100.80;947.20
55329;DHT22;41205;44.264;19.884;2023-05-07T06:20:24;1101.50;896.00
55329;DHT22;41205;44.264;19.884;2023-05-07T06:22:50;1101.60;921.60
55329;DHT22;41205;44.264;19.884;2023-05-07T06:25:15;1101.60;896.00
55329;DHT22;41205;44.264;19.884;2023-05-07T06:27:41;1126.40;921.60
55329;DHT22;41205;44.264;19.884;2023-05-07T06:30:07;1126.90;896.00
55329;DHT22;41205;44.264;19.884;2023-05-07T06:32:33;1152.20;870.40
55329;DHT22;41205;44.264;19.884;2023-05-07T06:34:59;1126.50;921.60
55329;DHT22;41205;44.264;19.884;2023-05-07T06:37:25;1126.40;921.60
55329;DHT22;41205;44.264;19.884;2023-05-07T06:39:51;1152.70;844.80
55329;DHT22;41205;44.264;19.884;2023-05-07T06:42:16;1152.40;870.40
55329;DHT22;41205;44.264;19.884;2023-05-07T06:44:42;1126.80;896.00
55329;DHT22;41205;44.264;19.884;2023-05-07T06:47:08;1152.90;844.80
55329;DHT22;41205;44.264;19.884;2023-05-07T06:49:33;1152.60;844.80
55329;DHT22;41205;44.264;19.884;2023-05-07T06:51:59;1178.50;793.60
55329;DHT22;41205;44.264;19.884;2023-05-07T06:54:25;1152.90;844.80
55329;DHT22;41205;44.264;19.884;2023-05-07T06:56:50;1178.10;819.20
55329;DHT22;41205;44.264;19.884;2023-05-07T06:59:16;1203.30;819.20
55329;DHT22;41205;44.264;19.884;2023-05-07T07:01:42;1101.30;921.60
55329;DHT22;41205;44.264;19.884;2023-05-07T07:04:07;1126.50;921.60
55329;DHT22;41205;44.264;19.884;2023-05-07T07:06:33;1126.90;896.00
55329;DHT22;41205;44.264;19.884;2023-05-07T07:08:59;1101.50;896.00
55329;DHT22;41205;44.264;19.884;2023-05-07T07:11:26;1101.10;896.00
55329;DHT22;41205;44.264;19.884;2023-05-07T07:13:51;1075.70;921.60
55329;DHT22;41205;44.264;19.884;2023-05-07T07:16:20;1101.50;896.00
55329;DHT22;41205;44.264;19.884;2023-05-07T07:18:46;1126.90;896.00
55329;DHT22;41205;44.264;19.884;2023-05-07T07:21:12;1127.00;896.00
55329;DHT22;41205;44.264;19.884;2023-05-07T07:23:37;1152.60;844.80
55329;DHT22;41205;44.264;19.884;2023-05-07T07:26:03;1152.90;844.80
55329;DHT22;41205;44.264;19.884;2023-05-07T07:28:29;1152.90;844.80
55329;DHT22;41205;44.264;19.884;2023-05-07T07:30:54;1152.10;870.40
55329;DHT22;41205;44.264;19.884;2023-05-07T07:33:20;1178.00;844.80
55329;DHT22;41205;44.264;19.884;2023-05-07T07:35:46;1178.10;819.20
55329;DHT22;41205;44.264;19.884;2023-05-07T07:38:11;1203.80;819.20
55329;DHT22;41205;44.264;19.884;2023-05-07T07:40:38;1203.40;819.20
55329;DHT22;41205;44.264;19.884;2023-05-07T07:43:04;1228.90;819.20
55329;DHT22;41205;44.264;19.884;2023-05-07T07:45:31;1178.20;819.20
55329;DHT22;41205;44.264;19.884;2023-05-07T07:47:57;1152.50;844.80
55329;DHT22;41205;44.264;19.884;2023-05-07T07:50:22;1177.60;844.80
55329;DHT22;41205;44.264;19.884;2023-05-07T07:52:48;1178.20;819.20
55329;DHT22;41205;44.264;19.884;2023-05-07T07:55:14;1177.60;844.80
55329;DHT22;41205;44.264;19.884;2023-05-07T07:57:46;1152.50;844.80
55329;DHT22;41205;44.264;19.884;2023-05-07T08:00:12;1152.40;870.40
55329;DHT22;41205;44.264;19.884;2023-05-07T08:02:38;1152.10;870.40
55329;DHT22;41205;44.264;19.884;2023-05-07T08:05:04;1152.90;844.80
55329;DHT22;41205;44.264;19.884;2023-05-07T08:07:29;1178.10;819.20
55329;DHT22;41205;44.264;19.884;2023-05-07T08:09:55;1177.80;844.80
55329;DHT22;41205;44.264;19.884;2023-05-07T08:12:21;1178.10;819.20
55329;DHT22;41205;44.264;19.884;2023-05-07T08:14:47;1178.10;819.20
55329;DHT22;41205;44.264;19.884;2023-05-07T08:17:12;1178.10;793.60
55329;DHT22;41205;44.264;19.884;2023-05-07T08:19:41;1127.10;870.40
55329;DHT22;41205;44.264;19.884;2023-05-07T08:22:07;1126.70;870.40
55329;DHT22;41205;44.264;19.884;2023-05-07T08:24:32;1050.00;947.20
55329;DHT22;41205;44.264;19.884;2023-05-07T08:26:58;973.70;947.20
55329;DHT22;41205;44.264;19.884;2023-05-07T08:29:24;921.80;1049.60
55329;DHT22;41205;44.264;19.884;2023-05-07T08:31:49;870.80;1126.40
55329;DHT22;41205;44.264;19.884;2023-05-07T08:34:15;870.40;1152.00
55329;DHT22;41205;44.264;19.884;2023-05-07T08:36:41;845.00;1203.20
55329;DHT22;41205;44.264;19.884;2023-05-07T08:39:11;820.00;1203.20
55329;DHT22;41205;44.264;19.884;2023-05-07T08:41:37;794.00;1254.40
55329;DHT22;41205;44.264;19.884;2023-05-07T08:44:03;768.50;1305.60
55329;DHT22;41205;44.264;19.884;2023-05-07T08:46:32;768.10;1305.60
55329;DHT22;41205;44.264;19.884;2023-05-07T08:48:58;743.10;1331.20
55329;DHT22;41205;44.264;19.884;2023-05-07T08:51:24;768.10;1356.80
55329;DHT22;41205;44.264;19.884;2023-05-07T08:53:50;743.30;1331.20
55329;DHT22;41205;44.264;19.884;2023-05-07T08:56:16;743.30;1382.40
55329;DHT22;41205;44.264;19.884;2023-05-07T08:58:44;768.30;1356.80
55329;DHT22;41205;44.264;19.884;2023-05-07T09:08:33;743.30;1382.40
55329;DHT22;41205;44.264;19.884;2023-05-07T09:10:59;742.70;1408.00
55329;DHT22;41205;44.264;19.884;2023-05-07T09:13:25;717.70;1382.40
55329;DHT22;41205;44.264;19.884;2023-05-07T09:15:51;742.40;1408.00
55329;DHT22;41205;44.264;19.884;2023-05-07T09:18:16;742.50;1408.00
55329;DHT22;41205;44.264;19.884;2023-05-07T09:20:42;742.60;1382.40
55329;DHT22;41205;44.264;19.884;2023-05-07T09:23:08;742.80;1408.00
55329;DHT22;41205;44.264;19.884;2023-05-07T09:25:35;742.80;1382.40
55329;DHT22;41205;44.264;19.884;2023-05-07T09:28:03;742.90;1382.40
55329;DHT22;41205;44.264;19.884;2023-05-07T09:30:30;742.90;1356.80
55329;DHT22;41205;44.264;19.884;2023-05-07T09:32:58;742.80;1382.40
55329;DHT22;41205;44.264;19.884;2023-05-07T09:35:25;742.90;1382.40
55329;DHT22;41205;44.264;19.884;2023-05-07T09:37:58;742.50;1382.40
55329;DHT22;41205;44.264;19.884;2023-05-07T09:40:26;717.70;1356.80
55329;DHT22;41205;44.264;19.884;2023-05-07T09:42:52;742.40;1408.00
55329;DHT22;41205;44.264;19.884;2023-05-07T09:45:28;717.70;1382.40
55329;DHT22;41205;44.264;19.884;2023-05-07T09:47:57;717.70;1331.20
55329;DHT22;41205;44.264;19.884;2023-05-07T09:50:36;717.40;1356.80
55329;DHT22;41205;44.264;19.884;2023-05-07T09:53:03;717.40;1356.80
55329;DHT22;41205;44.264;19.884;2023-05-07T09:57:55;717.40;1382.40
55329;DHT22;41205;44.264;19.884;2023-05-07T10:00:22;717.70;1382.40
55329;DHT22;41205;44.264;19.884;2023-05-07T10:02:51;717.20;1331.20
55329;DHT22;41205;44.264;19.884;2023-05-07T10:05:22;717.40;1331.20
55329;DHT22;41205;44.264;19.884;2023-05-07T10:07:48;717.30;1331.20
55329;DHT22;41205;44.264;19.884;2023-05-07T10:10:14;717.30;1305.60
55329;DHT22;41205;44.264;19.884;2023-05-07T10:12:41;717.50;1280.00
55329;DHT22;41205;44.264;19.884;2023-05-07T10:15:08;717.00;1228.80
55329;DHT22;41205;44.264;19.884;2023-05-07T10:17:38;716.90;1254.40
55329;DHT22;41205;44.264;19.884;2023-05-07T10:20:05;717.20;1305.60
55329;DHT22;41205;44.264;19.884;2023-05-07T10:22:38;717.20;1280.00
55329;DHT22;41205;44.264;19.884;2023-05-07T10:25:04;717.00;1356.80
55329;DHT22;41205;44.264;19.884;2023-05-07T10:27:32;691.50;1382.40
55329;DHT22;41205;44.264;19.884;2023-05-07T10:32:56;691.40;1433.60
55329;DHT22;41205;44.264;19.884;2023-05-07T10:35:36;691.80;1408.00
55329;DHT22;41205;44.264;19.884;2023-05-07T10:38:03;691.90;1382.40
55329;DHT22;41205;44.264;19.884;2023-05-07T10:40:31;691.90;1382.40
55329;DHT22;41205;44.264;19.884;2023-05-07T10:43:01;692.10;1382.40
55329;DHT22;41205;44.264;19.884;2023-05-07T10:45:28;691.90;1433.60
55329;DHT22;41205;44.264;19.884;2023-05-07T10:50:42;717.10;1356.80
55329;DHT22;41205;44.264;19.884;2023-05-07T10:55:44;691.90;1331.20
55329;DHT22;41205;44.264;19.884;2023-05-07T10:58:27;692.10;1356.80
55329;DHT22;41205;44.264;19.884;2023-05-07T11:00:57;691.90;1356.80
55329;DHT22;41205;44.264;19.884;2023-05-07T11:03:24;691.70;1356.80
55329;DHT22;41205;44.264;19.884;2023-05-07T11:08:56;691.70;1331.20
55329;DHT22;41205;44.264;19.884;2023-05-07T11:14:10;692.10;1408.00
55329;DHT22;41205;44.264;19.884;2023-05-07T11:16:36;716.80;1459.20
55329;DHT22;41205;44.264;19.884;2023-05-07T11:19:04;716.80;1433.60
55329;DHT22;41205;44.264;19.884;2023-05-07T11:21:37;716.90;1382.40
55329;DHT22;41205;44.264;19.884;2023-05-07T11:24:12;691.90;1331.20
55329;DHT22;41205;44.264;19.884;2023-05-07T11:26:46;692.10;1356.80
55329;DHT22;41205;44.264;19.884;2023-05-07T11:29:14;691.80;1305.60
55329;DHT22;41205;44.264;19.884;2023-05-07T11:34:07;692.10;1331.20
55329;DHT22;41205;44.264;19.884;2023-05-07T11:36:34;691.90;1356.80
55329;DHT22;41205;44.264;19.884;2023-05-07T11:39:00;691.90;1331.20
55329;DHT22;41205;44.264;19.884;2023-05-07T11:41:36;691.90;1305.60
55329;DHT22;41205;44.264;19.884;2023-05-07T11:44:04;691.60;1305.60
55329;DHT22;41205;44.264;19.884;2023-05-07T11:46:30;691.80;1305.60
55329;DHT22;41205;44.264;19.884;2023-05-07T11:48:57;692.00;1305.60
55329;DHT22;41205;44.264;19.884;2023-05-07T11:51:24;691.90;1280.00
55329;DHT22;41205;44.264;19.884;2023-05-07T11:53:52;691.90;1305.60
55329;DHT22;41205;44.264;19.884;2023-05-07T11:56:18;692.10;1331.20
55329;DHT22;41205;44.264;19.884;2023-05-07T11:58:46;691.80;1305.60
55329;DHT22;41205;44.264;19.884;2023-05-07T12:01:13;692.10;1356.80
55329;DHT22;41205;44.264;19.884;2023-05-07T12:03:43;692.10;1331.20
55329;DHT22;41205;44.264;19.884;2023-05-07T12:06:12;716.80;1408.00
55329;DHT22;41205;44.264;19.884;2023-05-07T12:08:39;692.10;1305.60
55329;DHT22;41205;44.264;19.884;2023-05-07T12:11:24;692.10;1305.60
55329;DHT22;41205;44.264;19.884;2023-05-07T12:13:51;691.70;1280.00
55329;DHT22;41205;44.264;19.884;2023-05-07T12:16:17;691.70;1280.00
55329;DHT22;41205;44.264;19.884;2023-05-07T12:18:45;691.70;1305.60
55329;DHT22;41205;44.264;19.884;2023-05-07T12:21:10;691.40;1305.60
55329;DHT22;41205;44.264;19.884;2023-05-07T12:23:37;691.70;1331.20
55329;DHT22;41205;44.264;19.884;2023-05-07T12:26:03;691.80;1305.60
55329;DHT22;41205;44.264;19.884;2023-05-07T12:28:29;691.60;1280.00
55329;DHT22;41205;44.264;19.884;2023-05-07T12:30:56;691.60;1280.00
55329;DHT22;41205;44.264;19.884;2023-05-07T12:33:26;691.50;1280.00
55329;DHT22;41205;44.264;19.884;2023-05-07T12:35:55;691.70;1254.40
55329;DHT22;41205;44.264;19.884;2023-05-07T12:38:21;691.80;1305.60
55329;DHT22;41205;44.264;19.884;2023-05-07T12:40:54;691.90;1280.00
55329;DHT22;41205;44.264;19.884;2023-05-07T12:43:27;691.80;1254.40
55329;DHT22;41205;44.264;19.884;2023-05-07T12:45:55;691.80;1254.40
55329;DHT22;41205;44.264;19.884;2023-05-07T12:48:22;691.70;1254.40
55329;DHT22;41205;44.264;19.884;2023-05-07T12:50:53;691.60;1254.40
55329;DHT22;41205;44.264;19.884;2023-05-07T12:53:21;691.70;1280.00
55329;DHT22;41205;44.264;19.884;2023-05-07T12:56:05;691.70;1280.00
55329;DHT22;41205;44.264;19.884;2023-05-07T12:58:33;691.70;1280.00
55329;DHT22;41205;44.264;19.884;2023-05-07T13:01:03;691.30;1254.40
55329;DHT22;41205;44.264;19.884;2023-05-07T13:03:34;691.80;1331.20
55329;DHT22;41205;44.264;19.884;2023-05-07T13:06:05;691.70;1254.40
55329;DHT22;41205;44.264;19.884;2023-05-07T13:08:36;691.70;1254.40
55329;DHT22;41205;44.264;19.884;2023-05-07T13:11:03;691.80;1254.40
55329;DHT22;41205;44.264;19.884;2023-05-07T13:13:34;691.90;1305.60
55329;DHT22;41205;44.264;19.884;2023-05-07T13:16:00;691.80;1228.80
55329;DHT22;41205;44.264;19.884;2023-05-07T13:18:27;691.90;1280.00
55329;DHT22;41205;44.264;19.884;2023-05-07T13:20:53;692.00;1280.00
55329;DHT22;41205;44.264;19.884;2023-05-07T13:23:19;691.70;1228.80
55329;DHT22;41205;44.264;19.884;2023-05-07T13:25:45;691.70;1254.40
55329;DHT22;41205;44.264;19.884;2023-05-07T13:28:11;691.70;1228.80
55329;DHT22;41205;44.264;19.884;2023-05-07T13:30:37;691.90;1228.80
55329;DHT22;41205;44.264;19.884;2023-05-07T13:33:03;691.80;1228.80
55329;DHT22;41205;44.264;19.884;2023-05-07T13:35:29;691.60;1228.80
55329;DHT22;41205;44.264;19.884;2023-05-07T13:37:55;691.60;1254.40
55329;DHT22;41205;44.264;19.884;2023-05-07T13:40:24;691.50;1254.40
55329;DHT22;41205;44.264;19.884;2023-05-07T13:42:50;691.30;1254.40
55329;DHT22;41205;44.264;19.884;2023-05-07T13:45:17;691.30;1254.40
55329;DHT22;41205;44.264;19.884;2023-05-07T13:47:43;691.50;1280.00
55329;DHT22;41205;44.264;19.884;2023-05-07T13:50:10;691.60;1331.20
55329;DHT22;41205;44.264;19.884;2023-05-07T13:52:37;691.70;1280.00
55329;DHT22;41205;44.264;19.884;2023-05-07T13:55:03;691.60;1254.40
55329;DHT22;41205;44.264;19.884;2023-05-07T13:57:29;691.30;1280.00
55329;DHT22;41205;44.264;19.884;2023-05-07T13:59:55;691.20;1280.00
55329;DHT22;41205;44.264;19.884;2023-05-07T14:02:21;691.30;1280.00
55329;DHT22;41205;44.264;19.884;2023-05-07T14:04:46;691.20;1280.00
55329;DHT22;41205;44.264;19.884;2023-05-07T14:07:12;691.40;1305.60
55329;DHT22;41205;44.264;19.884;2023-05-07T14:09:38;691.30;1280.00
55329;DHT22;41205;44.264;19.884;2023-05-07T14:12:04;691.30;1280.00
55329;DHT22;41205;44.264;19.884;2023-05-07T14:14:30;691.40;1254.40
55329;DHT22;41205;44.264;19.884;2023-05-07T14:16:56;691.60;1280.00
55329;DHT22;41205;44.264;19.884;2023-05-07T14:19:22;691.40;1280.00
55329;DHT22;41205;44.264;19.884;2023-05-07T14:21:48;691.30;1280.00
55329;DHT22;41205;44.264;19.884;2023-05-07T14:24:14;691.50;1305.60
55329;DHT22;41205;44.264;19.884;2023-05-07T14:26:40;691.20;1280.00
55329;DHT22;41205;44.264;19.884;2023-05-07T14:29:05;666.50;1280.00
55329;DHT22;41205;44.264;19.884;2023-05-07T14:31:31;691.20;1254.40
55329;DHT22;41205;44.264;19.884;2023-05-07T14:33:59;691.40;1280.00
55329;DHT22;41205;44.264;19.884;2023-05-07T14:36:25;691.60;1305.60
55329;DHT22;41205;44.264;19.884;2023-05-07T14:38:52;691.60;1254.40
55329;DHT22;41205;44.264;19.884;2023-05-07T14:41:20;691.60;1254.40
55329;DHT22;41205;44.264;19.884;2023-05-07T14:43:47;666.50;1254.40
55329;DHT22;41205;44.264;19.884;2023-05-07T14:46:18;691.40;1280.00
55329;DHT22;41205;44.264;19.884;2023-05-07T14:48:47;691.50;1254.40
55329;DHT22;41205;44.264;19.884;2023-05-07T14:51:13;691.70;1280.00
55329;DHT22;41205;44.264;19.884;2023-05-07T14:53:40;691.50;1254.40
55329;DHT22;41205;44.264;19.884;2023-05-07T14:56:06;666.50;1254.40
55329;DHT22;41205;44.264;19.884;2023-05-07T14:58:32;666.50;1280.00
55329;DHT22;41205;44.264;19.884;2023-05-07T15:00:58;691.40;1280.00